Weather reports worldwide

Advertisment
Mende, France (7554): temperature & dewpoint: 05.12.2019 08:00:00 - 11.12.2019 08:00:00 (CET)Mende, France (7554): temperature 5cm: 05.12.2019 08:00:00 - 11.12.2019 08:00:00 (CET)Mende, France (7554): temperature -20cm & temperature -100cm: 05.12.2019 08:00:00 - 11.12.2019 08:00:00 (CET)Mende, France (7554): wind speed & gusts: 05.12.2019 08:00:00 - 11.12.2019 08:00:00 (CET)Mende, France (7554): wind direction: 05.12.2019 08:00:00 - 11.12.2019 08:00:00 (CET)Mende, France (7554): visibility: 05.12.2019 08:00:00 - 11.12.2019 08:00:00 (CET)Mende, France (7554): sunshine duration: 05.12.2019 08:00:00 - 11.12.2019 08:00:00 (CET)Mende, France (7554): precipitation: 05.12.2019 08:00:00 - 11.12.2019 08:00:00 (CET)
Date & Time tt [°C] td [°C] tt 5cm [°C] tt -20cm [°C] tt -100cm [°C] ff [km/h] ff [kn] fx [km/h] fx [kn] dd vv [km] sd [min] rr [mm]
11.12.2019 08:00:00 2,0 -5,4 1,2 5,4 8,6 9 5 14 8 ESE 20 0 0,0
11.12.2019 07:00:00 1,9 -5,1 0,7 5,5 8,6 8 5 12 6 ESE 20 0 0,0
11.12.2019 06:00:00 1,2 -5,9 0,6 5,5 8,5 8 5 17 9 ESE 20 0 0,0
11.12.2019 05:00:00 1,0 -6,6 0,2 5,5 8,6 9 5 16 8 SE 20 0 0,0
11.12.2019 04:00:00 0,7 -8,3 -0,3 5,6 8,6 9 5 14 8 ESE 20 0 0,0
11.12.2019 03:00:00 -0,1 -9,3 -0,8 5,7 8,6 10 5 14 8 ESE 20 0 0,0
11.12.2019 02:00:00 0,0 -11,1 -1,1 5,7 8,6 5 3 13 7 SE 20 0 0,0
11.12.2019 01:00:00 -0,2 -11,6 -1,0 5,7 8,5 8 4 16 9 ESE 20 0 0,0
11.12.2019 00:00:00 -0,7 -10,1 -2,3 5,8 8,6 10 5 13 7 ESE 20 0 0,0
10.12.2019 23:00:00 -0,1 -11,2 -1,4 5,8 8,6 6 3 11 6 E 20 0 0,0
10.12.2019 22:00:00 0,5 -12,5 -2,6 5,8 8,6 9 5 13 7 ENE 20 0 0,0
10.12.2019 21:00:00 -0,7 -8,4 -4,1 5,8 8,6 9 5 13 7 ESE 20 0 0,0
10.12.2019 20:00:00 0,2 -7,8 -2,6 5,8 8,6 6 4 12 6 NE 20 0 0,0
10.12.2019 19:00:00 0,1 -8,1 -2,9 5,7 8,6 5 3 10 5 SE 20 0 0,0
10.12.2019 18:00:00 1,7 -9,3 -0,9 5,7 8,6 8 4 11 6 NE 20 0 0,0
10.12.2019 17:00:00 2,7 -9,0 0,9 5,6 8,6 0 0 18 10 N 20 27 0,0
10.12.2019 16:00:00 5,9 -8,8 4,1 5,6 8,6 6 4 20 11 WNW 20 55 0,0
10.12.2019 15:00:00 5,6 -10,7 7,4 5,6 8,6 7 4 18 10 N 20 60 0,0
10.12.2019 14:00:00 4,5 -9,7 6,4 5,7 8,6 10 5 27 14 N 20 58 0,0
10.12.2019 13:00:00 3,9 -6,7 7,6 5,7 8,6 14 7 22 12 NNW 20 55 0,0
10.12.2019 12:00:00 2,9 -6,0 4,7 5,8 8,6 9 5 17 9 WNW 20 32 0,0
10.12.2019 11:00:00 2,0 -5,2 4,7 5,8 8,6 5 3 27 15 W 20 60 0,0
10.12.2019 10:00:00 0,5 -5,1 -1,2 5,9 8,6 9 5 22 12 WSW 20 60 0,0
10.12.2019 09:00:00 -0,8 -5,0 -2,3 6,0 8,6 11 6 34 18 W 20 23 0,0
10.12.2019 08:00:00 -1,2 -5,2 -2,7 6,1 8,6 7 4 44 24 S 20 0 0,0
10.12.2019 07:00:00 -0,7 -5,1 -1,7 6,1 8,6 17 9 52 28 NNW 20 0 0,0
10.12.2019 06:00:00 -0,2 -5,0 -1,1 6,2 8,6 27 15 77 42 N 20 0 0,0
10.12.2019 05:00:00 0,5 -4,9 -0,3 6,2 8,6 50 27 80 43 N 20 0 0,0
10.12.2019 04:00:00 0,6 -4,6 -0,3 6,3 8,6 34 18 61 33 N 20 0 0,0
10.12.2019 03:00:00 1,0 -4,1 -0,2 6,4 8,6 28 15 66 35 N 20 0 0,0
10.12.2019 02:00:00 0,5 -2,2 -0,3 6,4 8,6 38 21 61 33 N 8 0 0,0
10.12.2019 01:00:00 1,0 -4,4 -0,3 6,5 8,6 29 15 55 30 N 20 0 0,0
10.12.2019 00:00:00 1,0 -3,5 -0,3 6,5 8,6 22 12 64 35 N 20 0 0,0
09.12.2019 23:00:00 1,3 -2,6 0,1 6,5 8,6 27 14 58 31 NNW 20 0 0,2
09.12.2019 22:00:00 1,6 -2,0 0,3 6,6 8,6 18 10 50 27 NNW 20 0 0,0
09.12.2019 21:00:00 1,7 -1,6 0,3 6,5 8,6 21 11 46 25 NNW 20 0 0,0
09.12.2019 20:00:00 1,9 0,0 1,1 6,6 8,6 22 12 55 30 NW 7 0 0,2
09.12.2019 19:00:00 2,7 -0,8 0,7 6,6 8,6 30 16 59 32 NNW 20 0 0,0
09.12.2019 18:00:00 2,3 0,4 1,2 6,6 8,6 21 11 63 34 NW 20 0 0,2
09.12.2019 17:00:00 3,3 0,2 2,0 6,6 8,6 26 14 55 30 WNW 20 0 0,0
09.12.2019 16:00:00 3,7 1,7 3,0 6,6 8,6 11 6 65 35 WNW 20 7 0,2
09.12.2019 15:00:00 4,3 1,7 3,7 6,6 8,6 26 14 49 26 WNW 20 5 0,0
09.12.2019 14:00:00 4,3 1,7 3,3 6,6 8,6 20 11 51 28 WNW 20 11 0,2
09.12.2019 13:00:00 4,1 1,1 3,3 6,6 8,6 29 16 55 30 W 20 1 0,0
09.12.2019 12:00:00 3,0 1,5 3,0 6,7 8,6 28 15 55 30 WNW 12 4 1,2
09.12.2019 11:00:00 3,7 2,8 3,9 6,7 8,6 19 10 32 18 W 16 19 0,2
09.12.2019 10:00:00 3,3 1,8 2,9 6,7 8,6 21 12 40 22 W 13 10 0,2
09.12.2019 09:00:00 2,9 2,0 2,5 6,7 8,6 14 8 29 15 W 20 0 0,2
09.12.2019 08:00:00 2,6 1,6 2,0 6,8 8,6 10 6 27 15 WNW 16 0 0,6
09.12.2019 07:00:00 3,1 2,2 2,7 6,8 8,6 9 5 16 9 NW 2,1 0 1,0
09.12.2019 06:00:00 3,0 1,8 2,6 6,8 8,6 8 4 26 14 W 20 0 0,8
09.12.2019 05:00:00 3,4 2,1 2,9 6,8 8,6 15 8 59 32 W 20 0 0,8
09.12.2019 04:00:00 3,8 2,9 3,2 6,8 8,6 20 11 43 23 W 8 0 0,6
09.12.2019 03:00:00 3,5 2,3 2,1 6,8 8,6 16 8 37 20 W 20 0 0,0
09.12.2019 02:00:00 3,7 2,1 3,0 6,8 8,6 11 6 38 20 W 19 0 0,2
09.12.2019 01:00:00 4,2 1,7 2,7 6,8 8,7 16 9 46 25 W 20 0 0,0
09.12.2019 00:00:00 4,2 2,5 4,0 6,8 8,6 27 15 45 25 NW 20 0 0,0
08.12.2019 23:00:00 5,5 4,6 4,9 6,7 8,6 11 6 19 11 W 20 0 0,0
08.12.2019 22:00:00 6,8 6,2 6,4 6,7 8,6 8 4 13 7 W 0,2 0 0,0
08.12.2019 21:00:00 6,6 5,9 6,4 6,7 8,6 3 2 9 5 WSW 0,2 0 0,0
08.12.2019 20:00:00 6,4 5,7 6,0 6,6 8,6 3 1 7 4 SW 0,4 0 0,0
08.12.2019 19:00:00 6,2 5,2 5,9 6,6 8,6 4 2 8 4 W 0,3 0 2,4
08.12.2019 18:00:00 6,4 5,0 5,9 6,5 8,6 5 3 14 7 WSW 4,9 0 0,4
08.12.2019 17:00:00 6,7 4,4 6,6 6,5 8,7 7 4 13 7 WSW 20 0 0,0
08.12.2019 16:00:00 7,4 4,2 8,1 6,4 8,6 5 3 19 10 SW 20 9 0,0
08.12.2019 15:00:00 7,5 4,1 8,2 6,4 8,6 12 6 22 12 WSW 20 0 0,0
08.12.2019 14:00:00 7,3 4,1 8,3 6,4 8,6 11 6 21 12 WSW 20 0 0,0
08.12.2019 13:00:00 8,2 4,0 9,3 6,4 8,6 10 5 18 10 WSW 20 34 0,0
08.12.2019 12:00:00 6,5 4,7 7,7 6,4 8,7 8 4 13 7 SW 20 0 0,0
08.12.2019 11:00:00 5,7 5,0 6,5 6,4 8,7 5 3 11 6 WSW 20 0 0,0
08.12.2019 10:00:00 5,1 4,5 4,9 6,4 8,7 5 3 8 4 W 7 0 0,0
08.12.2019 09:00:00 4,6 4,0 4,3 6,4 8,6 3 2 6 3 NW 0,3 0 0,0
08.12.2019 08:00:00 4,5 3,8 4,3 6,4 8,6 0 0 8 4 N 18 0 0,0
08.12.2019 07:00:00 4,6 4,0 4,5 6,4 8,7 3 2 8 5 W 0,1 0 0,0
08.12.2019 06:00:00 4,6 4,0 4,3 6,4 8,7 2 1 5 3 W 0,2 0 0,0
08.12.2019 05:00:00 4,5 3,9 4,4 6,4 8,6 0 0 8 4 N 0,2 0 0,0
08.12.2019 04:00:00 4,5 3,9 4,3 6,4 8,7 3 2 9 5 SW 15 0 0,0
08.12.2019 03:00:00 4,4 3,8 4,3 6,4 8,7 4 2 7 4 W 0,1 0 0,0
08.12.2019 02:00:00 4,4 3,8 4,2 6,4 8,7 3 2 8 4 W 0,1 0 0,0
08.12.2019 01:00:00 4,3 3,7 3,8 6,4 8,7 4 2 10 5 NNW 0,1 0 0,0
08.12.2019 00:00:00 4,1 3,4 3,3 6,4 8,7 6 3 9 5 NW 0,2 0 0,0
07.12.2019 23:00:00 4,1 3,1 3,8 6,3 8,7 3 2 12 6 NW 1,8 0 0,0
07.12.2019 22:00:00 4,4 3,4 3,8 6,2 8,7 5 3 8 4 W 9 0 0,0
07.12.2019 21:00:00 4,3 3,0 3,3 6,2 8,7 7 4 10 5 WNW 16 0 0,0
07.12.2019 20:00:00 4,8 3,5 3,2 6,1 8,7 4 2 10 5 SW 20 0 0,0
07.12.2019 19:00:00 4,6 2,6 3,6 6,0 8,7 4 2 13 7 WNW 20 0 0,0
07.12.2019 18:00:00 5,1 2,4 4,2 5,9 8,7 7 4 14 7 WNW 20 0 0,0
07.12.2019 17:00:00 6,2 2,5 5,9 5,9 8,7 8 5 11 6 WNW 20 14 0,0
07.12.2019 16:00:00 7,3 2,8 8,0 5,8 8,8 4 2 15 8 W 20 0 0,0
07.12.2019 15:00:00 7,6 2,5 8,4 5,7 8,7 8 4 30 16 W 20 0 0,0
07.12.2019 14:00:00 8,4 2,4 9,5 5,7 8,7 19 11 36 20 NNW 20 36 0,0
07.12.2019 13:00:00 9,7 3,2 13,6 5,7 8,7 8 4 21 11 W 20 60 0,0
07.12.2019 12:00:00 9,0 3,0 13,6 5,7 8,7 11 6 17 9 WNW 20 60 0,0
07.12.2019 11:00:00 7,0 2,1 8,4 5,7 8,7 8 4 11 6 W 20 51 0,0
07.12.2019 10:00:00 5,4 1,7 4,1 5,8 8,7 3 2 7 4 SSW 20 42 0,0
07.12.2019 09:00:00 3,7 1,7 -0,1 5,8 8,7 0 0 6 3 N 20 26 0,0
07.12.2019 08:00:00 3,7 0,7 0,2 5,8 8,8 4 2 9 5 NNE 20 0 0,0
07.12.2019 07:00:00 3,5 0,5 -0,1 5,9 8,8 2 1 9 5 WNW 20 0 0,0
07.12.2019 06:00:00 4,0 0,1 2,9 5,9 8,8 3 2 8 4 WSW 20 0 0,0
07.12.2019 05:00:00 2,9 -1,3 1,2 6,0 8,8 4 2 11 6 ESE 20 0 0,0
07.12.2019 04:00:00 1,8 -1,5 - - - 8 4 11 6 ESE 20 - -
07.12.2019 03:00:00 2,0 -1,8 -0,7 6,0 8,8 4 2 11 6 E 20 0 0,0
07.12.2019 02:00:00 1,8 -1,3 -0,3 6,0 8,8 6 3 11 6 SSE 20 0 0,0
07.12.2019 01:00:00 1,9 -1,0 -0,6 6,0 8,8 5 3 9 5 ESE 20 0 0,0
07.12.2019 00:00:00 2,0 -1,1 1,0 6,0 8,8 5 3 12 6 ENE 20 0 0,0
06.12.2019 23:00:00 2,2 -0,7 1,3 5,9 8,8 8 5 10 6 ESE 20 0 0,0
06.12.2019 22:00:00 2,5 -0,4 0,9 5,9 8,8 8 4 12 7 ESE 20 0 0,0
06.12.2019 21:00:00 3,1 -0,2 1,6 5,8 8,8 8 4 12 6 ESE 20 0 0,0
06.12.2019 20:00:00 3,7 0,0 2,4 5,7 8,8 7 4 10 6 ESE 20 0 0,0
06.12.2019 19:00:00 4,8 0,0 0,3 5,6 8,9 7 4 9 5 E 10 0 0,0
06.12.2019 18:00:00 5,5 -0,1 1,6 5,5 8,8 2 1 8 4 SW 20 0 0,0
06.12.2019 17:00:00 6,8 0,2 3,0 5,4 8,8 4 2 8 5 WNW 15 40 0,0
06.12.2019 16:00:00 11,0 0,1 10,0 5,4 8,8 4 2 9 5 WSW 20 58 0,0
06.12.2019 15:00:00 11,5 -0,3 13,0 5,3 8,9 4 2 12 7 WNW 20 60 0,0
06.12.2019 14:00:00 11,0 -0,8 15,6 5,4 8,9 7 4 12 6 WSW 20 60 0,0
06.12.2019 13:00:00 10,8 -2,6 15,3 5,4 8,9 3 2 9 5 WSW 20 60 0,0
06.12.2019 12:00:00 9,1 -0,8 10,6 5,4 8,9 2 1 7 4 WSW 20 60 0,0
06.12.2019 11:00:00 5,9 -1,5 6,0 5,5 8,9 7 4 11 6 SE 20 60 0,0
06.12.2019 10:00:00 2,9 -2,8 0,8 5,5 8,8 8 4 15 8 ESE 17 60 0,0
06.12.2019 09:00:00 0,2 -4,3 -1,3 5,6 8,9 9 5 16 8 ESE 20 27 0,0
06.12.2019 08:00:00 -0,1 -4,9 -1,3 5,6 8,9 9 5 14 8 ESE 20 0 0,0
06.12.2019 07:00:00 -0,3 -4,7 -1,1 5,7 8,9 11 6 15 8 ESE 20 0 0,0
06.12.2019 06:00:00 -0,2 -4,3 -1,1 5,7 8,9 13 7 16 8 SE 20 0 0,0
06.12.2019 05:00:00 0,1 -3,8 - - - 13 7 15 8 ESE 20 - 0,0
06.12.2019 04:00:00 0,2 -3,9 -0,6 5,8 8,9 11 6 14 8 ESE 20 0 0,0
06.12.2019 03:00:00 0,7 -3,8 -0,5 5,9 8,9 9 5 16 9 ESE 20 0 0,0
06.12.2019 02:00:00 0,3 -3,8 -0,4 5,9 8,9 11 6 16 8 ESE 20 0 0,0
06.12.2019 01:00:00 0,5 -4,2 -0,6 5,9 8,9 12 6 15 8 ESE 20 0 0,0
06.12.2019 00:00:00 0,4 -3,9 -0,6 5,9 8,9 11 6 16 9 ESE 20 0 0,0
05.12.2019 23:00:00 0,8 -3,7 -0,1 5,9 8,9 9 5 13 7 ESE 19 0 0,0
05.12.2019 22:00:00 1,0 -2,8 -0,1 5,9 8,9 10 6 14 8 ESE 20 0 0,0
05.12.2019 21:00:00 2,2 -2,5 -1,3 5,9 8,9 8 4 12 6 ESE 20 0 0,0
05.12.2019 20:00:00 3,0 -1,9 1,2 5,8 9,0 8 4 13 7 SE 20 0 0,0
05.12.2019 19:00:00 4,2 -1,8 1,9 5,7 8,9 9 5 11 6 ESE 20 0 0,0
05.12.2019 18:00:00 5,6 -2,0 2,0 5,7 9,0 8 4 12 7 ESE 20 0 0,0
05.12.2019 17:00:00 7,0 -4,1 3,0 5,6 9,0 0 0 5 3 N 19 9 0,0
05.12.2019 16:00:00 8,5 -3,4 8,6 5,5 9,0 4 2 9 5 E 20 8 0,0
05.12.2019 15:00:00 9,0 -4,2 9,5 5,5 9,0 3 2 8 4 ESE 17 0 0,0
05.12.2019 14:00:00 10,3 -5,3 11,6 5,5 9,0 3 2 19 10 W 20 9 0,0
05.12.2019 13:00:00 9,3 -5,0 10,6 5,5 9,0 3 1 10 5 WSW 20 7 0,0
05.12.2019 12:00:00 11,4 -3,5 13,4 5,5 9,0 5 3 14 8 SE 20 60 0,0
05.12.2019 11:00:00 9,9 -2,4 9,7 5,5 9,0 9 5 13 7 ESE 20 60 0,0
05.12.2019 10:00:00 7,5 -4,0 6,0 5,6 9,0 11 6 18 10 E 20 60 0,0
05.12.2019 09:00:00 5,5 -5,2 2,0 5,6 9,0 9 5 19 10 E 20 26 0,0
05.12.2019 08:00:00 3,4 -6,3 1,6 5,6 9,0 11 6 17 9 ESE 20 0 0,0

tt = temperature
td = dewpoint
tt 5cm = temperature 5cm
tt -20cm = temperature -20cm
tt -100cm = temperature -100cm
ff = wind speed
fx = gusts
dd = wind direction
vv = visibility
sd = sunshine duration
rr = precipitation

Next stations